createdAt,value
2023-03-29T00:02:10.359Z,7.22
2023-03-29T00:04:37.178Z,7.22
2023-03-29T00:07:05.943Z,7.20
2023-03-29T00:09:33.548Z,7.19
2023-03-29T00:12:01.549Z,7.17
2023-03-29T00:14:30.831Z,7.17
2023-03-29T00:16:58.594Z,7.18
2023-03-29T00:19:25.643Z,7.18
2023-03-29T00:21:52.613Z,7.19
2023-03-29T00:24:21.544Z,7.19
2023-03-29T00:26:48.601Z,7.19
2023-03-29T00:29:16.828Z,7.20
2023-03-29T00:31:51.354Z,7.20
2023-03-29T00:34:18.334Z,7.21
2023-03-29T00:36:45.117Z,7.19
2023-03-29T00:39:12.280Z,7.22
2023-03-29T00:41:40.554Z,7.21
2023-03-29T00:44:08.307Z,7.22
2023-03-29T00:46:36.208Z,7.23
2023-03-29T00:49:08.029Z,7.25
2023-03-29T00:51:38.365Z,7.26
2023-03-29T00:54:09.740Z,7.27
2023-03-29T00:56:40.616Z,7.26
2023-03-29T00:59:13.851Z,7.26
2023-03-29T01:01:45.826Z,7.25
2023-03-29T01:04:18.677Z,7.27
2023-03-29T01:06:49.608Z,7.28
2023-03-29T01:09:19.286Z,7.27
2023-03-29T01:11:51.540Z,7.26
2023-03-29T01:14:26.724Z,7.26
2023-03-29T01:16:54.683Z,7.28
2023-03-29T01:19:26.449Z,7.29
2023-03-29T01:22:02.527Z,7.29
2023-03-29T01:24:50.509Z,7.28
2023-03-29T01:27:23.552Z,7.30
2023-03-29T01:29:57.301Z,7.30
2023-03-29T01:32:31.165Z,7.31
2023-03-29T01:35:02.428Z,7.31
2023-03-29T01:37:34.461Z,7.33
2023-03-29T01:40:01.558Z,7.34
2023-03-29T01:42:41.425Z,7.34
2023-03-29T01:45:17.643Z,7.35
2023-03-29T01:47:48.119Z,7.36
2023-03-29T01:50:19.755Z,7.36
2023-03-29T01:52:52.409Z,7.38
2023-03-29T01:55:23.875Z,7.39
2023-03-29T01:57:56.602Z,7.39
2023-03-29T02:00:27.848Z,7.40
2023-03-29T02:03:00.254Z,7.43
2023-03-29T02:05:31.605Z,7.41
2023-03-29T02:08:00.731Z,7.43
2023-03-29T02:10:27.976Z,7.43
2023-03-29T02:12:56.258Z,7.44
2023-03-29T02:15:25.293Z,7.44
2023-03-29T02:17:52.332Z,7.46
2023-03-29T02:20:23.823Z,7.43
2023-03-29T02:22:58.697Z,7.46
2023-03-29T02:25:26.096Z,7.47
2023-03-29T02:27:53.512Z,7.48
2023-03-29T02:30:22.515Z,7.49
2023-03-29T02:32:57.408Z,7.50
2023-03-29T02:35:34.501Z,7.50
2023-03-29T02:38:04.428Z,7.53
2023-03-29T02:40:33.380Z,7.52
2023-03-29T02:43:03.428Z,7.53
2023-03-29T02:45:30.856Z,7.53
2023-03-29T02:48:05.238Z,7.53
2023-03-29T02:50:37.366Z,7.53
2023-03-29T02:53:13.238Z,7.52
2023-03-29T02:55:40.032Z,7.51
2023-03-29T02:58:09.729Z,7.53
2023-03-29T03:00:38.406Z,7.53
2023-03-29T03:03:08.007Z,7.51
2023-03-29T03:05:36.107Z,7.53
2023-03-29T03:08:04.670Z,7.54
2023-03-29T03:10:33.302Z,7.53
2023-03-29T03:13:00.362Z,7.56
2023-03-29T03:15:27.491Z,7.55
2023-03-29T03:17:56.175Z,7.55
2023-03-29T03:20:24.403Z,7.55
2023-03-29T03:22:51.466Z,7.54
2023-03-29T03:25:21.173Z,7.56
2023-03-29T03:27:49.253Z,7.56
2023-03-29T03:30:17.151Z,7.55
2023-03-29T03:32:44.836Z,7.55
2023-03-29T03:35:13.093Z,7.54
2023-03-29T03:37:41.594Z,7.53
2023-03-29T03:40:09.651Z,7.52
2023-03-29T03:42:36.355Z,7.53
2023-03-29T03:45:03.219Z,7.54
2023-03-29T03:47:31.093Z,7.55
2023-03-29T03:49:58.398Z,7.58
2023-03-29T03:52:25.309Z,7.59
2023-03-29T03:54:53.684Z,7.61
2023-03-29T03:57:23.143Z,7.62
2023-03-29T03:59:49.933Z,7.61
2023-03-29T04:02:16.708Z,7.61
2023-03-29T04:04:43.562Z,7.62
2023-03-29T04:07:13.205Z,7.63
2023-03-29T04:09:40.303Z,7.64
2023-03-29T04:12:10.771Z,7.64
2023-03-29T04:14:37.627Z,7.66
2023-03-29T04:17:08.000Z,7.66
2023-03-29T04:19:35.070Z,7.66
2023-03-29T04:22:01.879Z,7.67
2023-03-29T04:24:28.626Z,7.65
2023-03-29T04:26:55.545Z,7.66
2023-03-29T04:29:23.987Z,7.66
2023-03-29T04:31:50.958Z,7.67
2023-03-29T04:34:17.755Z,7.67
2023-03-29T04:36:44.792Z,7.68
2023-03-29T04:39:12.210Z,7.68
2023-03-29T04:41:39.207Z,7.69
2023-03-29T04:44:06.941Z,7.72
2023-03-29T04:46:35.260Z,7.72
2023-03-29T04:49:02.280Z,7.72
2023-03-29T04:51:29.097Z,7.73
2023-03-29T04:53:55.813Z,7.74
2023-03-29T04:56:23.319Z,7.75
2023-03-29T04:58:51.004Z,7.77
2023-03-29T05:01:17.836Z,7.77
2023-03-29T05:03:46.148Z,7.77
2023-03-29T05:06:12.984Z,7.77
2023-03-29T05:08:40.475Z,7.78
2023-03-29T05:11:08.470Z,7.77
2023-03-29T05:13:35.433Z,7.78
2023-03-29T05:16:03.740Z,7.79
2023-03-29T05:18:31.144Z,7.79
2023-03-29T05:21:00.295Z,7.80
2023-03-29T05:23:27.466Z,7.80
2023-03-29T05:25:54.332Z,7.80
2023-03-29T05:28:21.747Z,7.82
2023-03-29T05:31:00.098Z,7.83
2023-03-29T05:33:27.315Z,7.84
2023-03-29T05:36:02.841Z,7.84
2023-03-29T05:38:30.181Z,7.85
2023-03-29T05:40:57.612Z,7.85
2023-03-29T05:43:24.755Z,7.84
2023-03-29T05:45:52.836Z,7.85
2023-03-29T05:48:19.572Z,7.86
2023-03-29T05:50:48.482Z,7.89
2023-03-29T05:53:17.072Z,7.90
2023-03-29T05:55:46.846Z,7.90
2023-03-29T05:58:14.425Z,7.90
2023-03-29T06:00:41.978Z,7.90
2023-03-29T06:03:21.102Z,7.92
2023-03-29T06:05:50.298Z,7.93
2023-03-29T06:08:18.464Z,7.93
2023-03-29T06:10:45.568Z,7.93
2023-03-29T06:13:12.795Z,7.92
2023-03-29T06:15:39.598Z,7.96
2023-03-29T06:18:06.678Z,7.98
2023-03-29T06:20:33.757Z,7.98
2023-03-29T06:23:02.188Z,8.01
2023-03-29T06:25:30.402Z,8.02
2023-03-29T06:27:57.530Z,8.04
2023-03-29T06:30:25.007Z,8.05
2023-03-29T06:32:51.761Z,8.07
2023-03-29T06:35:18.695Z,8.09
2023-03-29T06:37:50.062Z,8.11
2023-03-29T06:40:19.119Z,8.14
2023-03-29T06:42:47.933Z,8.16
2023-03-29T06:45:14.826Z,8.19
2023-03-29T06:47:42.721Z,8.19
2023-03-29T06:50:11.717Z,8.21
2023-03-29T06:52:38.622Z,8.25
2023-03-29T06:55:07.856Z,8.29
2023-03-29T06:57:34.626Z,8.30
2023-03-29T07:00:07.277Z,8.30
2023-03-29T07:02:34.559Z,8.33
2023-03-29T07:05:03.542Z,8.34
2023-03-29T07:07:44.006Z,8.37
2023-03-29T07:10:12.924Z,8.41
2023-03-29T07:12:40.858Z,8.43
2023-03-29T07:15:09.988Z,8.46
2023-03-29T07:17:36.712Z,8.49
2023-03-29T07:20:06.008Z,8.51
2023-03-29T07:22:32.680Z,8.56
2023-03-29T07:25:00.728Z,8.58
2023-03-29T07:27:27.523Z,8.63
2023-03-29T07:29:54.355Z,8.66
2023-03-29T07:32:22.661Z,8.70
2023-03-29T07:34:49.641Z,8.73
2023-03-29T07:37:16.358Z,8.76
2023-03-29T07:39:43.100Z,8.80
2023-03-29T07:42:09.828Z,8.83
2023-03-29T07:44:37.427Z,8.87
2023-03-29T07:47:05.579Z,8.89
2023-03-29T07:49:33.668Z,8.93
2023-03-29T07:52:01.247Z,8.95
2023-03-29T07:54:28.200Z,8.99
2023-03-29T07:56:55.474Z,9.03
2023-03-29T07:59:22.357Z,9.06
2023-03-29T08:01:49.172Z,9.08
2023-03-29T08:04:16.032Z,9.13
2023-03-29T08:06:44.451Z,9.15
2023-03-29T08:09:11.439Z,9.18
2023-03-29T08:11:39.863Z,9.21
2023-03-29T08:14:06.938Z,9.24
2023-03-29T08:16:33.748Z,9.28
2023-03-29T08:19:00.875Z,9.33
2023-03-29T08:21:27.628Z,9.36
2023-03-29T08:23:56.393Z,9.40
2023-03-29T08:26:23.225Z,9.44
2023-03-29T08:28:59.099Z,9.48
2023-03-29T08:31:26.115Z,9.52
2023-03-29T08:33:53.340Z,9.57
2023-03-29T08:36:20.335Z,9.62
2023-03-29T08:38:47.510Z,9.67
2023-03-29T08:41:32.006Z,9.71
2023-03-29T08:44:13.746Z,9.76
2023-03-29T08:46:46.526Z,9.82
2023-03-29T08:49:16.658Z,9.88
2023-03-29T08:51:47.735Z,9.94
2023-03-29T08:54:20.540Z,10.01
2023-03-29T08:56:51.338Z,10.05
2023-03-29T08:59:22.831Z,10.10
2023-03-29T09:01:54.084Z,10.18
2023-03-29T09:04:25.391Z,10.23
2023-03-29T09:06:52.911Z,10.29
2023-03-29T09:09:23.170Z,10.35
2023-03-29T09:12:08.345Z,10.40
2023-03-29T09:14:55.294Z,10.46
2023-03-29T09:17:34.899Z,10.50
2023-03-29T09:20:11.247Z,10.55
2023-03-29T09:22:43.820Z,10.61
2023-03-29T09:25:21.692Z,10.67
2023-03-29T09:27:58.167Z,10.72
2023-03-29T09:30:29.553Z,10.77
2023-03-29T09:33:00.885Z,10.80
2023-03-29T09:35:32.054Z,10.86
2023-03-29T09:37:59.278Z,10.91
2023-03-29T09:40:29.988Z,10.96
2023-03-29T09:43:01.147Z,11.01
2023-03-29T09:45:28.035Z,11.06
2023-03-29T09:47:58.119Z,11.12
2023-03-29T09:50:32.360Z,11.18
2023-03-29T09:52:59.704Z,11.23
2023-03-29T09:55:28.807Z,11.30
2023-03-29T09:57:58.097Z,11.37
2023-03-29T10:00:26.776Z,11.45
2023-03-29T10:02:57.155Z,11.52
2023-03-29T10:05:25.978Z,11.55
2023-03-29T10:07:54.612Z,11.61
2023-03-29T10:10:23.911Z,11.67
2023-03-29T10:12:53.011Z,11.74
2023-03-29T10:15:29.295Z,11.80
2023-03-29T10:18:03.956Z,11.87
2023-03-29T10:20:31.636Z,11.91
2023-03-29T10:22:59.550Z,11.97
2023-03-29T10:25:29.389Z,12.03
2023-03-29T10:28:03.611Z,12.08
2023-03-29T10:30:33.791Z,12.10
2023-03-29T10:33:02.515Z,12.16
2023-03-29T10:35:33.433Z,12.23
2023-03-29T10:38:04.732Z,12.28
2023-03-29T10:40:33.963Z,12.32
2023-03-29T10:43:02.018Z,12.38
2023-03-29T10:45:32.077Z,12.44
2023-03-29T10:47:59.811Z,12.46
2023-03-29T10:50:34.346Z,12.47
2023-03-29T10:53:03.256Z,12.49
2023-03-29T10:55:36.997Z,12.51
2023-03-29T10:58:16.938Z,12.51
2023-03-29T11:00:48.612Z,12.53
2023-03-29T11:03:43.698Z,12.58
2023-03-29T11:06:19.538Z,12.60
2023-03-29T11:08:54.367Z,12.63
2023-03-29T11:12:15.024Z,12.69
2023-03-29T11:14:53.891Z,12.73
2023-03-29T11:17:37.179Z,12.76
2023-03-29T11:20:19.563Z,12.78
2023-03-29T11:22:53.173Z,12.80
2023-03-29T11:25:37.355Z,12.81
2023-03-29T11:28:13.966Z,12.84
2023-03-29T11:30:48.201Z,12.87
2023-03-29T11:33:33.587Z,12.89
2023-03-29T11:36:10.619Z,12.91
2023-03-29T11:38:45.216Z,12.93
2023-03-29T11:41:17.700Z,12.92
2023-03-29T11:43:49.509Z,12.92
2023-03-29T11:46:21.904Z,12.93
2023-03-29T11:48:53.059Z,12.95
2023-03-29T11:51:26.034Z,12.98
2023-03-29T11:54:02.779Z,13.00
2023-03-29T11:56:36.148Z,13.02
2023-03-29T11:59:08.236Z,13.02
2023-03-29T12:01:38.728Z,13.03
2023-03-29T12:04:10.613Z,13.05
2023-03-29T12:06:45.670Z,13.05
2023-03-29T12:09:25.267Z,13.05
2023-03-29T12:11:58.903Z,13.07
2023-03-29T12:14:35.505Z,13.09
2023-03-29T12:17:05.651Z,13.10
2023-03-29T12:19:40.979Z,13.09
2023-03-29T12:22:09.827Z,13.09
2023-03-29T12:24:42.078Z,13.11
2023-03-29T12:27:26.833Z,13.12
2023-03-29T12:30:13.193Z,13.14
2023-03-29T12:33:08.035Z,13.18
2023-03-29T12:35:45.566Z,13.20
2023-03-29T12:38:19.651Z,13.22
2023-03-29T12:40:54.283Z,13.23
2023-03-29T12:43:25.245Z,13.22
2023-03-29T12:45:54.572Z,13.23
2023-03-29T12:48:24.459Z,13.24
2023-03-29T12:50:54.219Z,13.22
2023-03-29T12:53:24.593Z,13.23
2023-03-29T12:56:11.688Z,13.21
2023-03-29T12:58:53.788Z,13.22
2023-03-29T13:01:29.770Z,13.21
2023-03-29T13:04:13.841Z,13.22
2023-03-29T13:07:04.985Z,13.23
2023-03-29T13:09:47.146Z,13.22
2023-03-29T13:12:24.172Z,13.24
2023-03-29T13:14:53.304Z,13.24
2023-03-29T13:17:31.955Z,13.25
2023-03-29T13:20:16.757Z,13.25
2023-03-29T13:22:53.943Z,13.28
2023-03-29T13:25:37.481Z,13.32
2023-03-29T13:28:16.612Z,13.36
2023-03-29T13:30:51.638Z,13.40
2023-03-29T13:33:38.334Z,13.44
2023-03-29T13:36:14.424Z,13.49
2023-03-29T13:38:47.046Z,13.52
2023-03-29T13:41:28.863Z,13.56
2023-03-29T13:43:58.765Z,13.61
2023-03-29T13:46:37.620Z,13.65
2023-03-29T13:49:14.421Z,13.71
2023-03-29T13:51:42.922Z,13.78
2023-03-29T13:54:24.799Z,13.83
2023-03-29T13:57:02.694Z,13.87
2023-03-29T13:59:42.896Z,13.91
2023-03-29T14:02:22.064Z,13.94
2023-03-29T14:04:52.487Z,13.98
2023-03-29T14:07:26.250Z,14.02
2023-03-29T14:09:55.149Z,14.05
2023-03-29T14:12:22.797Z,14.06
2023-03-29T14:14:58.919Z,14.08
2023-03-29T14:17:27.105Z,14.11
2023-03-29T14:19:59.050Z,14.13
2023-03-29T14:22:32.826Z,14.16
2023-03-29T14:25:02.724Z,14.19
2023-03-29T14:27:30.972Z,14.22
2023-03-29T14:29:59.219Z,14.24
2023-03-29T14:32:30.071Z,14.25
2023-03-29T14:34:57.002Z,14.27
2023-03-29T14:37:26.604Z,14.29
2023-03-29T14:39:53.938Z,14.31
2023-03-29T14:42:24.963Z,14.33
2023-03-29T14:44:57.168Z,14.35
2023-03-29T14:47:28.238Z,14.38
2023-03-29T14:49:57.091Z,14.42
2023-03-29T14:52:24.890Z,14.42
2023-03-29T14:54:59.424Z,14.44
2023-03-29T14:57:29.108Z,14.46
2023-03-29T15:00:01.522Z,14.48
2023-03-29T15:02:31.687Z,14.50
2023-03-29T15:05:03.567Z,14.53
2023-03-29T15:07:32.530Z,14.55
2023-03-29T15:10:01.235Z,14.58
2023-03-29T15:12:29.901Z,14.61
2023-03-29T15:14:57.002Z,14.63
2023-03-29T15:17:46.807Z,14.66
2023-03-29T15:20:21.543Z,14.70
2023-03-29T15:22:56.631Z,14.73
2023-03-29T15:25:27.494Z,14.75
2023-03-29T15:27:58.966Z,14.78
2023-03-29T15:30:35.341Z,14.80
2023-03-29T15:33:15.168Z,14.83
2023-03-29T15:35:46.454Z,14.86
2023-03-29T15:38:13.570Z,14.89
2023-03-29T15:40:42.210Z,14.92
2023-03-29T15:43:09.007Z,14.96
2023-03-29T15:45:36.156Z,14.99
2023-03-29T15:48:05.462Z,15.01
2023-03-29T15:50:34.081Z,15.02
2023-03-29T15:53:14.176Z,15.04
2023-03-29T15:55:45.377Z,15.05
2023-03-29T15:58:14.470Z,15.08
2023-03-29T16:00:43.571Z,15.09
2023-03-29T16:03:13.677Z,15.09
2023-03-29T16:05:43.078Z,15.10
2023-03-29T16:08:11.554Z,15.08
2023-03-29T16:10:38.473Z,15.08
2023-03-29T16:13:05.723Z,15.07
2023-03-29T16:15:33.908Z,15.07
2023-03-29T16:18:00.960Z,15.07
2023-03-29T16:20:27.830Z,15.06
2023-03-29T16:22:57.409Z,15.06
2023-03-29T16:25:24.354Z,15.05
2023-03-29T16:27:52.862Z,15.05
2023-03-29T16:30:19.900Z,15.06
2023-03-29T16:32:46.818Z,15.07
2023-03-29T16:35:20.048Z,15.07
2023-03-29T16:37:46.834Z,15.05
2023-03-29T16:40:15.339Z,15.05
2023-03-29T16:42:42.226Z,15.03
2023-03-29T16:45:14.554Z,15.04
2023-03-29T16:47:45.059Z,15.03
2023-03-29T16:50:12.642Z,15.02
2023-03-29T16:52:40.107Z,15.03
2023-03-29T16:55:10.767Z,15.02
2023-03-29T16:57:42.014Z,15.02
2023-03-29T17:00:17.012Z,15.01
2023-03-29T17:02:44.692Z,15.01
2023-03-29T17:05:12.490Z,15.00
2023-03-29T17:07:39.931Z,15.00
2023-03-29T17:10:08.310Z,14.98
2023-03-29T17:12:35.644Z,14.97
2023-03-29T17:15:04.483Z,14.95
2023-03-29T17:17:31.661Z,14.93
2023-03-29T17:19:58.432Z,14.91
2023-03-29T17:22:25.515Z,14.91
2023-03-29T17:24:52.564Z,14.89
2023-03-29T17:27:19.397Z,14.88
2023-03-29T17:29:46.174Z,14.86
2023-03-29T17:32:14.265Z,14.85
2023-03-29T17:34:41.667Z,14.84
2023-03-29T17:37:09.671Z,14.83
2023-03-29T17:39:37.783Z,14.81
2023-03-29T17:42:05.047Z,14.79
2023-03-29T17:44:33.475Z,14.77
2023-03-29T17:47:03.572Z,14.74
2023-03-29T17:49:31.862Z,14.73
2023-03-29T17:51:58.634Z,14.69
2023-03-29T17:54:25.450Z,14.68
2023-03-29T17:56:52.257Z,14.66
2023-03-29T17:59:19.113Z,14.64
2023-03-29T18:01:45.860Z,14.61
2023-03-29T18:04:12.557Z,14.59
2023-03-29T18:06:40.796Z,14.58
2023-03-29T18:09:07.800Z,14.56
2023-03-29T18:11:36.420Z,14.52
2023-03-29T18:14:04.867Z,14.49
2023-03-29T18:16:31.835Z,14.46
2023-03-29T18:18:58.494Z,14.44
2023-03-29T18:21:26.312Z,14.42
2023-03-29T18:23:56.637Z,14.39
2023-03-29T18:26:24.164Z,14.37
2023-03-29T18:28:51.262Z,14.35
2023-03-29T18:31:19.829Z,14.34
2023-03-29T18:33:47.078Z,14.31
2023-03-29T18:36:14.784Z,14.29
2023-03-29T18:38:43.786Z,14.26
2023-03-29T18:41:13.535Z,14.22
2023-03-29T18:43:41.510Z,14.19
2023-03-29T18:46:08.912Z,14.16
2023-03-29T18:48:39.000Z,14.13
2023-03-29T18:51:07.491Z,14.10
2023-03-29T18:53:34.998Z,14.07
2023-03-29T18:56:03.019Z,14.03
2023-03-29T18:58:31.254Z,13.98
2023-03-29T19:01:02.071Z,13.94
2023-03-29T19:03:29.142Z,13.91
2023-03-29T19:05:56.190Z,13.87
2023-03-29T19:08:23.951Z,13.83
2023-03-29T19:10:50.971Z,13.82
2023-03-29T19:13:17.942Z,13.79
2023-03-29T19:15:47.556Z,13.76
2023-03-29T19:18:14.520Z,13.72
2023-03-29T19:20:41.295Z,13.68
2023-03-29T19:23:08.098Z,13.65
2023-03-29T19:25:35.547Z,13.63
2023-03-29T19:28:03.827Z,13.57
2023-03-29T19:30:30.707Z,13.52
2023-03-29T19:32:58.977Z,13.48
2023-03-29T19:35:25.997Z,13.45
2023-03-29T19:37:52.775Z,13.41
2023-03-29T19:40:20.092Z,13.37
2023-03-29T19:42:47.823Z,13.32
2023-03-29T19:45:14.567Z,13.31
2023-03-29T19:47:44.001Z,13.31
2023-03-29T19:50:12.339Z,13.30
2023-03-29T19:52:39.388Z,13.30
2023-03-29T19:55:07.563Z,13.29
2023-03-29T19:57:34.495Z,13.30
2023-03-29T20:00:01.501Z,13.30
2023-03-29T20:02:28.724Z,13.30
2023-03-29T20:04:57.661Z,13.32
2023-03-29T20:07:28.144Z,13.32
2023-03-29T20:09:54.854Z,13.33
2023-03-29T20:12:21.663Z,13.35
2023-03-29T20:14:48.709Z,13.38
2023-03-29T20:17:15.557Z,13.39
2023-03-29T20:19:44.186Z,13.41
2023-03-29T20:22:11.479Z,13.41
2023-03-29T20:24:39.886Z,13.42
2023-03-29T20:27:06.662Z,13.43
2023-03-29T20:29:34.051Z,13.46
2023-03-29T20:32:01.300Z,13.47
2023-03-29T20:34:28.245Z,13.47
2023-03-29T20:36:55.472Z,13.49
2023-03-29T20:39:25.550Z,13.50
2023-03-29T20:41:54.280Z,13.52
2023-03-29T20:44:28.291Z,13.54
2023-03-29T20:47:08.574Z,13.56
2023-03-29T20:49:37.595Z,13.58
2023-03-29T20:52:08.586Z,13.59
2023-03-29T20:54:37.086Z,13.61
2023-03-29T20:57:09.138Z,13.63
2023-03-29T20:59:38.070Z,13.63
2023-03-29T21:02:05.087Z,13.64
2023-03-29T21:04:33.154Z,13.66
2023-03-29T21:07:02.484Z,13.68
2023-03-29T21:09:31.084Z,13.67
2023-03-29T21:11:58.068Z,13.69
2023-03-29T21:14:29.484Z,13.70
2023-03-29T21:16:57.890Z,13.72
2023-03-29T21:19:24.749Z,13.71
2023-03-29T21:21:52.235Z,13.73
2023-03-29T21:24:19.531Z,13.72
2023-03-29T21:26:46.963Z,13.71
2023-03-29T21:29:14.105Z,13.71
2023-03-29T21:31:42.330Z,13.71
2023-03-29T21:34:09.207Z,13.71
2023-03-29T21:36:36.234Z,13.71
2023-03-29T21:39:03.212Z,13.72
2023-03-29T21:41:30.052Z,13.70
2023-03-29T21:43:58.301Z,13.71
2023-03-29T21:46:26.424Z,13.72
2023-03-29T21:48:54.621Z,13.70
2023-03-29T21:51:21.537Z,13.69
2023-03-29T21:53:48.276Z,13.68
2023-03-29T21:56:15.126Z,13.68
2023-03-29T21:58:43.082Z,13.68
2023-03-29T22:01:10.594Z,13.68
2023-03-29T22:03:38.001Z,13.68
2023-03-29T22:06:11.885Z,13.70
2023-03-29T22:08:41.546Z,13.69
2023-03-29T22:11:10.979Z,13.68
2023-03-29T22:13:39.035Z,13.69
2023-03-29T22:16:07.436Z,13.68
2023-03-29T22:18:42.756Z,13.68
2023-03-29T22:21:16.248Z,13.65
2023-03-29T22:23:44.263Z,13.64
2023-03-29T22:26:13.903Z,13.64
2023-03-29T22:28:40.977Z,13.64
2023-03-29T22:31:10.013Z,13.64
2023-03-29T22:33:37.516Z,13.64
2023-03-29T22:36:14.317Z,13.63
2023-03-29T22:38:41.608Z,13.63
2023-03-29T22:41:08.903Z,13.63
2023-03-29T22:43:37.205Z,13.63
2023-03-29T22:46:04.149Z,13.63
2023-03-29T22:48:31.208Z,13.62
2023-03-29T22:50:58.054Z,13.63
2023-03-29T22:53:27.172Z,13.64
2023-03-29T22:55:54.198Z,13.65
2023-03-29T22:58:21.396Z,13.64
2023-03-29T23:00:48.566Z,13.65
2023-03-29T23:03:15.904Z,13.65
2023-03-29T23:05:42.811Z,13.67
2023-03-29T23:08:09.726Z,13.68
2023-03-29T23:10:37.806Z,13.71
2023-03-29T23:13:13.619Z,13.69
2023-03-29T23:15:45.824Z,13.69
2023-03-29T23:18:13.548Z,13.69
2023-03-29T23:20:40.829Z,13.69
2023-03-29T23:23:08.736Z,13.68
2023-03-29T23:25:37.072Z,13.69
2023-03-29T23:28:04.788Z,13.68
2023-03-29T23:30:31.964Z,13.68
2023-03-29T23:33:00.314Z,13.68
2023-03-29T23:35:27.279Z,13.67
2023-03-29T23:37:54.347Z,13.67
2023-03-29T23:40:22.065Z,13.67
2023-03-29T23:42:50.528Z,13.65
2023-03-29T23:45:18.841Z,13.65
